Time;durP1;ratioP1;P1;durP2;ratioP2;P2;SDS_P1;SDS_P2;PMS_P1;PMS_P2;Temp;Humidity;BMP_temperature;BMP_pressure;BME280_temperature;BME280_humidity;BME280_pressure;Samples;Min_cycle;Max_cycle;Signal;HPM_P1;HPM_P2
2021/09/06 00:00:02;;;;;;;8.00;7.00;;;;;;;8.76;82.06;99856.63;111234;1204;61028;-81
2021/09/06 00:02:28;;;;;;;8.20;6.60;;;;;;;8.73;82.12;99857.29;111255;1203;66982;-82
2021/09/06 00:04:55;;;;;;;8.60;6.60;;;;;;;8.70;82.19;99857.98;111277;1204;61077;-82
2021/09/06 00:07:22;;;;;;;9.00;6.00;;;;;;;8.68;82.27;99854.52;111187;1204;63974;-81
2021/09/06 00:09:56;;;;;;;7.00;5.40;;;;;;;8.65;82.29;99856.23;111180;1204;61041;-81
2021/09/06 00:12:23;;;;;;;9.70;6.70;;;;;;;8.64;82.45;99856.66;111249;1198;61076;-82
2021/09/06 00:14:50;;;;;;;7.70;5.40;;;;;;;8.63;82.62;99855.10;111238;1204;65994;-82
2021/09/06 00:17:16;;;;;;;8.60;5.60;;;;;;;8.63;82.76;99858.10;111243;1204;61102;-82
2021/09/06 00:19:43;;;;;;;7.20;5.40;;;;;;;8.63;82.85;99859.36;111210;1204;64951;-82
2021/09/06 00:22:10;;;;;;;8.80;6.60;;;;;;;8.62;83.07;99860.13;111238;1204;61079;-81
2021/09/06 00:24:36;;;;;;;8.80;5.70;;;;;;;8.59;83.20;99868.04;111213;1195;61079;-81
2021/09/06 00:27:03;;;;;;;8.20;5.80;;;;;;;8.56;83.25;99866.56;111186;1204;66231;-81
2021/09/06 00:29:30;;;;;;;7.30;6.00;;;;;;;8.53;83.33;99863.54;111218;1204;61066;-81
2021/09/06 00:31:56;;;;;;;8.90;5.90;;;;;;;8.50;83.39;99866.48;111235;1204;65191;-81
2021/09/06 00:34:23;;;;;;;7.80;4.90;;;;;;;8.48;83.43;99867.27;111268;1204;61090;-82
2021/09/06 00:36:49;;;;;;;8.10;5.50;;;;;;;8.45;83.59;99864.05;111275;1204;61039;-82
2021/09/06 00:39:16;;;;;;;8.50;5.80;;;;;;;8.43;83.81;99863.78;111235;1204;64712;-82
2021/09/06 00:41:43;;;;;;;7.80;5.70;;;;;;;8.42;83.86;99866.86;111228;1204;60999;-82
2021/09/06 00:44:09;;;;;;;10.10;6.50;;;;;;;8.38;83.91;99866.63;111234;1204;63613;-82
2021/09/06 00:46:36;;;;;;;10.70;6.70;;;;;;;8.36;83.93;99871.48;111249;1204;61074;-82
2021/09/06 00:49:03;;;;;;;8.90;5.80;;;;;;;8.32;84.08;99871.31;111251;1204;61105;-82
2021/09/06 00:51:29;;;;;;;9.30;6.40;;;;;;;8.29;84.27;99865.45;111234;1204;64873;-82
2021/09/06 00:53:56;;;;;;;7.60;5.60;;;;;;;8.26;84.41;99864.52;111176;1204;61001;-82
2021/09/06 00:56:23;;;;;;;8.50;5.90;;;;;;;8.23;84.50;99863.77;111197;1204;63847;-82
2021/09/06 00:58:51;;;;;;;8.50;5.90;;;;;;;8.21;84.53;99862.42;111229;1204;61190;-82
2021/09/06 01:01:18;;;;;;;7.60;6.00;;;;;;;8.20;84.86;99862.63;111215;1204;61178;-82
2021/09/06 01:03:44;;;;;;;7.70;6.80;;;;;;;8.19;84.78;99863.05;111234;1204;65700;-82
2021/09/06 01:06:11;;;;;;;9.20;6.80;;;;;;;8.17;84.79;99859.75;111229;1204;61069;-82
2021/09/06 01:08:37;;;;;;;9.10;7.10;;;;;;;8.14;85.04;99859.86;111255;1204;62427;-82
2021/09/06 01:11:04;;;;;;;9.80;7.00;;;;;;;8.11;85.05;99858.23;111218;1204;61057;-82
2021/09/06 01:13:31;;;;;;;8.20;6.10;;;;;;;8.08;85.35;99858.36;111198;1197;61039;-82
2021/09/06 01:15:58;;;;;;;8.10;6.10;;;;;;;8.06;85.48;99857.21;111230;1204;65888;-82
2021/09/06 01:18:25;;;;;;;8.00;6.10;;;;;;;8.04;85.56;99856.39;111254;1204;61098;-81
2021/09/06 01:20:51;;;;;;;6.50;5.40;;;;;;;8.04;85.71;99858.55;111210;1198;62861;-81
2021/09/06 01:23:18;;;;;;;9.70;6.20;;;;;;;8.03;85.72;99855.21;111246;1204;61085;-81
2021/09/06 01:25:48;;;;;;;8.40;6.30;;;;;;;8.03;85.88;99853.27;111258;1204;61057;-83
2021/09/06 01:28:15;;;;;;;;;;;;;;;8.02;85.85;99856.14;111226;1204;66004;-83
2021/09/06 01:30:42;;;;;;;10.60;6.00;;;;;;;7.99;85.94;99855.56;111280;1196;61066;-81
2021/09/06 01:33:08;;;;;;;6.80;5.20;;;;;;;7.96;85.89;99855.52;111228;1204;64984;-83
2021/09/06 01:35:35;;;;;;;9.40;5.80;;;;;;;7.92;86.17;99855.48;111209;1204;61075;-82
2021/09/06 01:38:02;;;;;;;8.70;6.30;;;;;;;7.90;86.16;99860.17;111237;1204;60990;-83
2021/09/06 01:40:29;;;;;;;7.10;6.30;;;;;;;7.89;86.16;99862.02;111202;1204;65964;-82
2021/09/06 01:42:55;;;;;;;8.00;6.00;;;;;;;7.88;86.44;99861.00;111248;1204;61083;-83
2021/09/06 01:45:22;;;;;;;8.30;5.80;;;;;;;7.88;86.73;99863.13;111227;1196;63621;-82
2021/09/06 01:47:49;;;;;;;9.20;6.50;;;;;;;7.87;86.95;99860.83;111270;1204;61092;-82
2021/09/06 01:50:15;;;;;;;7.40;6.60;;;;;;;7.88;86.97;99856.58;111244;1196;61103;-80
2021/09/06 01:52:42;;;;;;;8.50;7.40;;;;;;;7.87;87.25;99859.05;111257;1204;74888;-81
2021/09/06 01:55:09;;;;;;;9.30;7.50;;;;;;;7.85;87.24;99860.02;111228;1204;61017;-81
2021/09/06 01:57:35;;;;;;;9.90;7.50;;;;;;;7.83;87.21;99859.95;111218;1204;62458;-81
2021/09/06 02:00:27;;;;;;;9.30;7.60;;;;;;;7.80;87.58;99860.08;111241;1204;61009;-81
2021/09/06 02:02:54;;;;;;;9.10;7.10;;;;;;;7.78;87.75;99864.94;111236;1195;61194;-81
2021/09/06 02:05:20;;;;;;;10.70;7.00;;;;;;;7.76;87.88;99867.31;111260;1204;66677;-81
2021/09/06 02:07:47;;;;;;;9.00;7.00;;;;;;;7.75;88.01;99870.53;111196;1204;61087;-82
2021/09/06 02:10:14;;;;;;;7.50;6.60;;;;;;;7.74;88.34;99869.02;111200;1204;73991;-81
2021/09/06 02:12:40;;;;;;;11.10;6.80;;;;;;;7.73;88.46;99871.36;111249;1204;61030;-81
2021/09/06 02:15:08;;;;;;;8.10;6.50;;;;;;;7.71;88.35;99875.11;111223;1195;61090;-81
2021/09/06 02:17:34;;;;;;;8.30;7.40;;;;;;;7.71;88.57;99870.91;111239;1203;66902;-81
2021/09/06 02:20:01;;;;;;;12.20;7.60;;;;;;;7.70;88.72;99871.11;111193;1204;61082;-81
2021/09/06 02:22:28;;;;;;;9.30;6.80;;;;;;;7.70;88.60;99872.34;111216;1204;63892;-81
2021/09/06 02:24:55;;;;;;;8.40;7.30;;;;;;;7.68;88.94;99871.70;111224;1204;61090;-81
2021/09/06 02:27:21;;;;;;;9.30;7.60;;;;;;;7.67;89.28;99868.92;111264;1197;61089;-81
2021/09/06 02:29:48;;;;;;;10.70;8.00;;;;;;;7.64;88.96;99868.51;111221;1204;65993;-81
2021/09/06 02:32:14;;;;;;;9.70;7.50;;;;;;;7.61;88.84;99868.30;111209;1204;61169;-81
2021/09/06 02:34:41;;;;;;;10.10;7.20;;;;;;;7.57;88.87;99870.07;111249;1204;63991;-81
2021/09/06 02:37:08;;;;;;;8.50;7.40;;;;;;;7.54;89.15;99873.19;111233;1203;61092;-81
2021/09/06 02:39:36;;;;;;;9.50;7.20;;;;;;;7.51;89.02;99872.23;111172;1204;61551;-81
2021/09/06 02:42:03;;;;;;;10.00;8.50;;;;;;;7.50;89.09;99873.86;111200;1204;65973;-81
2021/09/06 02:44:30;;;;;;;12.10;8.10;;;;;;;7.48;89.12;99871.83;111267;1204;61095;-82
2021/09/06 02:46:57;;;;;;;10.20;7.80;;;;;;;7.46;89.18;99873.66;111246;1204;63789;-82
2021/09/06 02:49:24;;;;;;;9.70;7.90;;;;;;;7.44;89.36;99873.55;111189;1204;61010;-82
2021/09/06 02:51:51;;;;;;;9.00;7.30;;;;;;;7.43;89.42;99877.68;111249;1204;61111;-81
2021/09/06 02:54:18;;;;;;;9.00;7.50;;;;;;;7.41;89.53;99878.30;111203;1204;67134;-82
2021/09/06 02:56:44;;;;;;;10.60;8.10;;;;;;;7.38;89.58;99877.70;111231;1204;61042;-82
2021/09/06 02:59:11;;;;;;;10.70;8.80;;;;;;;7.37;89.68;99877.59;111204;1204;63967;-82
2021/09/06 03:01:38;;;;;;;10.90;8.60;;;;;;;7.35;89.78;99878.02;111267;1204;61090;-82
2021/09/06 03:04:04;;;;;;;8.70;7.80;;;;;;;7.34;89.91;99878.05;111269;1204;61087;-82
2021/09/06 03:06:31;;;;;;;10.10;8.40;;;;;;;7.32;89.91;99877.24;111228;1204;64439;-82
2021/09/06 03:08:58;;;;;;;10.70;8.20;;;;;;;7.31;89.98;99878.70;111249;1204;61087;-82
2021/09/06 03:11:25;;;;;;;8.90;7.80;;;;;;;7.30;90.09;99876.98;111230;1204;64006;-82
2021/09/06 03:13:54;;;;;;;10.40;8.90;;;;;;;7.27;90.43;99874.06;111229;1204;61010;-82
2021/09/06 03:16:22;;;;;;;11.80;8.90;;;;;;;7.24;90.36;99873.83;111234;1195;61006;-81
2021/09/06 03:18:48;;;;;;;9.20;8.30;;;;;;;7.22;90.32;99871.10;111239;1204;65971;-82
2021/09/06 03:21:16;;;;;;;10.50;8.20;;;;;;;7.20;90.35;99871.71;111234;1204;60976;-81
2021/09/06 03:23:43;;;;;;;11.10;8.00;;;;;;;7.18;90.36;99869.84;111248;1204;72742;-81
2021/09/06 03:26:10;;;;;;;12.20;8.50;;;;;;;7.15;90.53;99868.36;111228;1205;60974;-81
2021/09/06 03:28:36;;;;;;;11.10;9.70;;;;;;;7.13;90.52;99867.91;111192;1204;61010;-81
2021/09/06 03:31:03;;;;;;;13.50;9.00;;;;;;;7.11;90.56;99870.63;111217;1204;64647;-81
2021/09/06 03:33:30;;;;;;;11.00;9.00;;;;;;;7.08;90.60;99869.84;111251;1204;67846;-81
2021/09/06 03:35:56;;;;;;;10.50;9.20;;;;;;;7.07;90.77;99869.73;111267;1204;62639;-81
2021/09/06 03:38:23;;;;;;;11.40;9.40;;;;;;;7.05;90.79;99873.32;111263;1205;61044;-81
2021/09/06 03:40:50;;;;;;;12.90;9.10;;;;;;;7.04;90.84;99868.96;111243;1204;61083;-81
2021/09/06 03:43:16;;;;;;;13.20;9.90;;;;;;;7.01;90.87;99869.27;111230;1204;65965;-81
2021/09/06 03:45:43;;;;;;;11.90;9.50;;;;;;;6.98;90.93;99868.14;111261;1204;61088;-81
2021/09/06 03:48:10;;;;;;;13.70;8.70;;;;;;;6.95;90.96;99870.35;111207;1204;64954;-81
2021/09/06 03:50:36;;;;;;;12.40;9.30;;;;;;;6.93;91.01;99865.84;111212;1204;61003;-81
2021/09/06 03:53:03;;;;;;;10.20;9.10;;;;;;;6.91;91.28;99867.35;111252;1200;61030;-81
2021/09/06 03:55:29;;;;;;;9.60;8.60;;;;;;;6.89;91.29;99864.22;111224;1204;66063;-81
2021/09/06 03:57:56;;;;;;;10.70;9.20;;;;;;;6.88;91.32;99864.43;111210;1204;61022;-81
2021/09/06 04:00:23;;;;;;;12.10;9.00;;;;;;;6.88;91.48;99866.22;111255;1204;62579;-81
2021/09/06 04:02:50;;;;;;;11.10;8.90;;;;;;;6.87;91.50;99868.17;111208;1204;60993;-81
2021/09/06 04:05:16;;;;;;;10.70;9.30;;;;;;;6.87;91.44;99869.05;111227;1195;61011;-81
2021/09/06 04:07:43;;;;;;;15.30;10.40;;;;;;;6.88;91.38;99866.73;111275;1204;65956;-81
2021/09/06 04:10:11;;;;;;;13.40;9.70;;;;;;;6.90;91.36;99868.80;111213;1205;61161;-80
2021/09/06 04:12:37;;;;;;;10.60;9.50;;;;;;;6.94;91.43;99868.27;111377;1208;64656;-83
2021/09/06 04:15:05;;;;;;;13.80;10.40;;;;;;;6.97;91.28;99867.81;111167;1203;61018;-82
2021/09/06 04:17:32;;;;;;;14.10;11.10;;;;;;;7.00;91.29;99868.75;111210;1204;61090;-82
2021/09/06 04:19:58;;;;;;;11.60;9.80;;;;;;;7.06;91.29;99872.94;111192;1204;67022;-82
2021/09/06 04:22:25;;;;;;;11.90;9.00;;;;;;;7.14;91.27;99875.64;111239;1204;61090;-81
2021/09/06 04:24:52;;;;;;;10.20;9.10;;;;;;;7.21;91.14;99881.19;111281;1205;62682;-83
2021/09/06 04:27:19;;;;;;;11.80;9.40;;;;;;;7.56;90.86;99882.10;111190;1197;61060;-82
2021/09/06 04:29:45;;;;;;;9.70;8.70;;;;;;;8.09;90.01;99877.93;111255;1204;61085;-82
2021/09/06 04:32:12;;;;;;;9.90;7.60;;;;;;;8.58;89.09;99877.80;111249;1199;66642;-83
2021/09/06 04:34:39;;;;;;;11.50;8.00;;;;;;;9.01;88.14;99878.34;111268;1204;61075;-83
2021/09/06 04:37:07;;;;;;;8.50;7.20;;;;;;;9.42;87.27;99879.41;111300;1205;62931;-82
2021/09/06 04:39:33;;;;;;;11.30;7.40;;;;;;;9.78;86.53;99878.05;111249;1195;61118;-83
2021/09/06 04:42:00;;;;;;;8.90;8.00;;;;;;;9.99;86.00;99886.02;111263;1196;61042;-82
2021/09/06 04:44:26;;;;;;;9.60;8.20;;;;;;;10.41;85.18;99883.20;111298;1204;66489;-81
2021/09/06 04:46:53;;;;;;;9.50;7.60;;;;;;;10.74;84.36;99881.29;111261;1204;60997;-80
2021/09/06 04:49:20;;;;;;;11.00;7.70;;;;;;;10.53;84.10;99884.34;111261;1196;64107;-80
2021/09/06 04:51:46;;;;;;;9.00;7.30;;;;;;;10.75;83.66;99887.63;111250;1204;61004;-80
2021/09/06 04:54:14;;;;;;;9.00;8.00;;;;;;;11.20;82.57;99884.50;111229;1198;61037;-80
2021/09/06 04:56:41;;;;;;;12.90;7.30;;;;;;;11.46;81.74;99877.67;111235;1204;65833;-78
2021/09/06 04:59:07;;;;;;;7.20;6.50;;;;;;;11.73;81.08;99879.73;111208;1205;61059;-80
2021/09/06 05:01:35;;;;;;;11.20;7.60;;;;;;;12.00;80.28;99878.39;111256;1198;64447;-80
2021/09/06 05:04:03;;;;;;;11.10;7.80;;;;;;;12.24;80.00;99880.15;111201;1203;61992;-77
2021/09/06 05:06:30;;;;;;;8.90;7.10;;;;;;;12.42;78.73;99882.27;111193;1203;61896;-79
2021/09/06 05:08:58;;;;;;;9.00;7.00;;;;;;;12.68;78.40;99885.19;111181;1205;66626;-80
2021/09/06 05:11:25;;;;;;;8.60;7.20;;;;;;;12.97;77.87;99884.96;111188;1204;62015;-80
2021/09/06 05:13:52;;;;;;;9.20;7.20;;;;;;;13.19;77.12;99884.84;111179;1204;63647;-79
2021/09/06 05:16:19;;;;;;;11.00;7.80;;;;;;;13.34;76.15;99890.90;111190;1205;61935;-80
2021/09/06 05:18:46;;;;;;;7.90;7.10;;;;;;;13.39;75.84;99893.58;111131;1203;61930;-80
2021/09/06 05:21:12;;;;;;;8.20;7.20;;;;;;;13.49;75.44;99890.64;111205;1205;66768;-80
2021/09/06 05:23:39;;;;;;;8.20;7.00;;;;;;;13.57;75.35;99891.88;111151;1205;62092;-80
2021/09/06 05:26:06;;;;;;;8.00;6.60;;;;;;;13.65;74.84;99895.15;111151;1205;63664;-79
2021/09/06 05:28:32;;;;;;;10.50;7.60;;;;;;;13.69;74.19;99892.55;111085;1198;61948;-79
2021/09/06 05:31:02;;;;;;;9.50;7.20;;;;;;;13.74;74.51;99891.13;111229;1204;62010;-79
2021/09/06 05:33:30;;;;;;;11.10;6.90;;;;;;;13.91;74.32;99892.36;111116;1205;67762;-79
2021/09/06 05:35:56;;;;;;;9.30;6.80;;;;;;;14.00;74.06;99891.88;111179;1204;61899;-80
2021/09/06 05:38:23;;;;;;;8.60;6.90;;;;;;;14.11;73.94;99899.94;111171;1203;73935;-78
2021/09/06 05:40:50;;;;;;;7.10;6.30;;;;;;;14.23;73.56;99897.17;111204;1204;61898;-78
2021/09/06 05:43:17;;;;;;;8.40;6.20;;;;;;;14.30;72.78;99898.14;111133;1204;61901;-78
2021/09/06 05:45:44;;;;;;;8.90;7.00;;;;;;;14.21;72.15;99900.19;111165;1206;75531;-78
2021/09/06 05:48:10;;;;;;;9.20;6.50;;;;;;;14.11;71.73;99900.14;111223;1198;61987;-78
2021/09/06 05:50:37;;;;;;;8.20;6.60;;;;;;;13.96;71.51;99901.35;111228;1205;63589;-79
2021/09/06 05:53:03;;;;;;;7.80;6.40;;;;;;;13.87;71.99;99902.23;111235;1205;61809;-80
2021/09/06 05:55:30;;;;;;;7.40;6.60;;;;;;;13.92;71.92;99900.66;111158;1203;61783;-79
2021/09/06 05:57:57;;;;;;;9.20;7.00;;;;;;;13.99;71.76;99901.61;111169;1204;65571;-78
2021/09/06 06:00:23;;;;;;;7.50;6.70;;;;;;;13.98;71.56;99900.96;111145;1205;61867;-78
2021/09/06 06:02:50;;;;;;;7.80;6.90;;;;;;;14.00;71.87;99900.68;111080;1203;63628;-78
2021/09/06 06:05:17;;;;;;;9.20;6.10;;;;;;;14.13;71.99;99899.46;111237;1206;61885;-80
2021/09/06 06:07:43;;;;;;;7.60;6.20;;;;;;;14.26;71.75;99893.20;111204;1198;61804;-80
2021/09/06 06:10:10;;;;;;;9.20;7.10;;;;;;;14.22;70.98;99895.27;111335;1203;65264;-93
2021/09/06 06:12:37;;;;;;;12.10;6.60;;;;;;;14.15;70.80;99895.42;111365;1205;61885;-94
2021/09/06 06:15:05;;;;;;;8.60;5.80;;;;;;;14.02;70.73;99895.70;111205;1205;63718;-85
2021/09/06 06:17:42;;;;;;;8.80;6.60;;;;;;;13.97;70.99;99893.91;111297;1198;61818;-89
2021/09/06 06:20:11;;;;;;;8.00;6.20;;;;;;;13.91;70.69;99890.03;111309;1204;61889;-88
2021/09/06 06:22:37;;;;;;;6.70;5.70;;;;;;;13.79;70.57;99887.23;111326;1205;66748;-92
2021/09/06 06:25:05;;;;;;;8.30;6.50;;;;;;;13.64;71.05;99883.41;111270;1203;61867;-78
2021/09/06 06:27:31;;;;;;;6.60;5.90;;;;;;;13.54;71.23;99884.39;111184;1204;62791;-78
2021/09/06 06:29:58;;;;;;;7.60;5.80;;;;;;;13.49;71.42;99885.95;111205;1204;61914;-78
2021/09/06 06:32:25;;;;;;;7.90;5.80;;;;;;;13.39;71.49;99887.54;111220;1205;61949;-78
2021/09/06 06:34:51;;;;;;;8.20;6.30;;;;;;;13.17;72.38;99892.80;111176;1204;65451;-78
2021/09/06 06:37:18;;;;;;;7.10;5.90;;;;;;;13.00;73.09;99892.09;111206;1204;61857;-78
2021/09/06 06:39:45;;;;;;;7.40;6.20;;;;;;;12.88;73.34;99895.35;111180;1205;62617;-78
2021/09/06 06:42:11;;;;;;;8.00;6.60;;;;;;;12.80;73.71;99903.00;111189;1197;61907;-78
2021/09/06 06:44:40;;;;;;;9.80;6.60;;;;;;;12.69;73.96;99905.77;111156;1198;61956;-78
2021/09/06 06:47:06;;;;;;;7.10;5.80;;;;;;;12.62;74.39;99904.23;111159;1204;66788;-78
2021/09/06 06:49:33;;;;;;;7.70;5.30;;;;;;;12.56;74.22;99909.25;111204;1204;62035;-78
2021/09/06 06:52:00;;;;;;;11.70;6.10;;;;;;;12.47;74.33;99911.21;111185;1198;63655;-77
2021/09/06 06:54:27;;;;;;;8.40;5.20;;;;;;;12.44;74.48;99912.45;111213;1198;61902;-76
2021/09/06 06:56:53;;;;;;;6.90;5.40;;;;;;;12.40;74.24;99914.52;111222;1195;61985;-77
2021/09/06 06:59:20;;;;;;;7.20;5.60;;;;;;;12.30;74.26;99920.21;111196;1203;65125;-79
2021/09/06 07:01:47;;;;;;;6.40;5.40;;;;;;;12.28;74.38;99923.91;111173;1204;62346;-79
2021/09/06 07:04:13;;;;;;;8.60;6.10;;;;;;;12.24;74.40;99927.37;111220;1204;62607;-79
2021/09/06 07:06:40;;;;;;;5.70;4.40;;;;;;;12.25;74.54;99922.69;111174;1204;61887;-78
2021/09/06 07:09:07;;;;;;;6.50;5.40;;;;;;;12.27;74.61;99925.96;111198;1195;61818;-77
2021/09/06 07:11:33;;;;;;;5.10;4.20;;;;;;;12.31;74.74;99933.02;111185;1204;66775;-78
2021/09/06 07:14:00;;;;;;;5.90;4.60;;;;;;;12.37;74.59;99928.59;111212;1204;61919;-78
2021/09/06 07:16:27;;;;;;;6.30;4.80;;;;;;;12.47;74.97;99932.27;111211;1204;64976;-78
2021/09/06 07:18:53;;;;;;;5.20;4.20;;;;;;;12.60;74.70;99933.98;111184;1204;61859;-77
2021/09/06 07:21:20;;;;;;;6.30;4.90;;;;;;;12.72;74.72;99939.84;111199;1204;61905;-78
2021/09/06 07:23:47;;;;;;;9.20;5.50;;;;;;;12.85;74.59;99939.08;111199;1204;67764;-77
2021/09/06 07:26:14;;;;;;;7.60;4.90;;;;;;;12.91;74.46;99942.41;111210;1196;61822;-78
2021/09/06 07:28:40;;;;;;;6.10;4.50;;;;;;;12.99;74.21;99943.04;111153;1204;63642;-78
2021/09/06 07:31:08;;;;;;;4.70;4.10;;;;;;;13.06;73.69;99944.92;111147;1195;61847;-78
2021/09/06 07:33:35;;;;;;;5.80;4.40;;;;;;;13.11;73.43;99943.70;111241;1196;61991;-77
2021/09/06 07:36:03;;;;;;;7.40;4.50;;;;;;;13.17;73.63;99942.45;111201;1196;66867;-79
2021/09/06 07:38:30;;;;;;;6.10;4.30;;;;;;;13.27;73.41;99940.77;111248;1204;61899;-79
2021/09/06 07:40:57;;;;;;;7.30;4.40;;;;;;;13.40;73.32;99939.41;111202;1204;64099;-77
2021/09/06 07:43:24;;;;;;;5.20;3.70;;;;;;;13.51;73.05;99939.77;111222;1204;61959;-77
2021/09/06 07:45:51;;;;;;;5.20;3.40;;;;;;;13.60;72.63;99940.44;111180;1204;61798;-78
2021/09/06 07:48:18;;;;;;;6.30;3.80;;;;;;;13.70;72.49;99942.48;111226;1205;65430;-77
2021/09/06 07:50:46;;;;;;;3.60;3.20;;;;;;;13.82;72.53;99938.66;111251;1204;61857;-77
2021/09/06 07:53:12;;;;;;;5.50;3.60;;;;;;;13.93;71.65;99943.31;111214;1204;64661;-76
2021/09/06 07:55:39;;;;;;;6.50;3.10;;;;;;;13.97;70.56;99943.23;111199;1195;61805;-76
2021/09/06 07:58:06;;;;;;;5.50;3.20;;;;;;;13.99;70.16;99943.99;111200;1200;61943;-77
2021/09/06 08:00:33;;;;;;;3.60;3.00;;;;;;;14.06;70.50;99943.88;111203;1204;66801;-77
2021/09/06 08:03:00;;;;;;;5.40;3.60;;;;;;;14.19;70.41;99943.92;111188;1204;61892;-75
2021/09/06 08:05:29;;;;;;;4.80;3.10;;;;;;;14.31;69.89;99943.48;111210;1204;63776;-77
2021/09/06 08:07:56;;;;;;;3.30;2.90;;;;;;;14.42;68.90;99942.19;111197;1197;61908;-76
2021/09/06 08:10:24;;;;;;;4.80;3.20;;;;;;;14.49;68.50;99947.96;111278;1195;61868;-78
2021/09/06 08:12:50;;;;;;;3.80;3.00;;;;;;;14.58;68.80;99945.46;111190;1204;66833;-77
2021/09/06 08:15:17;;;;;;;2.90;2.20;;;;;;;14.71;69.06;99943.13;111178;1204;61879;-76
2021/09/06 08:17:44;;;;;;;2.90;2.60;;;;;;;14.84;68.06;99937.92;111180;1204;63932;-77
2021/09/06 08:20:15;;;;;;;3.90;2.60;;;;;;;14.98;67.90;99936.80;111191;1204;61809;-77
2021/09/06 08:22:42;;;;;;;2.30;2.10;;;;;;;15.10;67.23;99940.22;111248;1203;61879;-77
2021/09/06 08:25:11;;;;;;;2.80;1.90;;;;;;;15.20;66.56;99940.38;111210;1204;65544;-77
2021/09/06 08:27:39;;;;;;;3.00;2.30;;;;;;;15.29;66.17;99939.90;111212;1204;61796;-77
2021/09/06 08:30:08;;;;;;;2.80;2.40;;;;;;;15.41;65.36;99940.36;111245;1204;64129;-77
2021/09/06 08:32:34;;;;;;;4.40;2.00;;;;;;;15.49;65.32;99944.58;111182;1202;61838;-80
2021/09/06 08:35:02;;;;;;;2.70;2.10;;;;;;;15.59;64.49;99944.41;111040;1198;61889;-78
2021/09/06 08:37:29;;;;;;;2.10;1.60;;;;;;;15.64;63.13;99945.46;111132;1204;65437;-78
2021/09/06 08:39:55;;;;;;;3.90;1.60;;;;;;;15.69;62.78;99943.52;110918;1204;61890;-78
2021/09/06 08:42:22;;;;;;;3.60;2.20;;;;;;;15.75;61.79;99948.48;110891;1204;63659;-77
2021/09/06 08:44:49;;;;;;;2.40;2.00;;;;;;;15.80;61.98;99944.88;110910;1203;61898;-78
2021/09/06 08:47:16;;;;;;;1.80;1.60;;;;;;;15.86;61.95;99945.39;111213;1204;61911;-78
2021/09/06 08:49:46;;;;;;;2.30;1.60;;;;;;;15.95;61.84;99948.11;111153;1197;66814;-78
2021/09/06 08:52:14;;;;;;;;;;;;;;;16.04;61.31;99948.86;111192;1203;61862;-77
2021/09/06 08:54:41;;;;;;;3.10;1.80;;;;;;;16.12;59.73;99949.89;111065;1204;63956;-77
2021/09/06 08:57:09;;;;;;;2.40;1.90;;;;;;;16.14;59.36;99951.13;111184;1196;61892;-77
2021/09/06 08:59:40;;;;;;;3.30;1.60;;;;;;;16.18;59.53;99955.11;111204;1204;61774;-77
2021/09/06 09:02:07;;;;;;;2.10;1.40;;;;;;;16.24;59.34;99954.52;111204;1204;68072;-77
2021/09/06 09:04:34;;;;;;;2.00;1.50;;;;;;;16.32;59.33;99954.68;111179;1205;61878;-77
2021/09/06 09:07:03;;;;;;;2.20;1.80;;;;;;;16.40;58.73;99948.69;111172;1204;64012;-77
2021/09/06 09:09:32;;;;;;;3.10;2.30;;;;;;;16.53;58.73;99947.17;111218;1204;61893;-77
2021/09/06 09:12:12;;;;;;;1.90;1.70;;;;;;;16.66;58.42;99949.70;111219;1204;61892;-77
2021/09/06 09:14:41;;;;;;;3.50;2.20;;;;;;;16.77;58.41;99944.92;111238;1204;66773;-77
2021/09/06 09:17:10;;;;;;;3.10;2.00;;;;;;;16.85;57.14;99942.92;111209;1204;61898;-77
2021/09/06 09:19:38;;;;;;;2.50;2.30;;;;;;;16.86;56.92;99945.84;111181;1203;62649;-78
2021/09/06 09:22:11;;;;;;;1.70;1.60;;;;;;;16.93;57.83;99940.89;111223;1205;61891;-77
2021/09/06 09:24:38;;;;;;;2.60;1.50;;;;;;;17.02;57.13;99940.52;111216;1203;61910;-77
2021/09/06 09:27:11;;;;;;;2.50;1.80;;;;;;;17.05;57.26;99939.67;111106;1203;65255;-77
2021/09/06 09:29:44;;;;;;;3.00;1.70;;;;;;;17.15;57.14;99932.14;111191;1205;61924;-77
2021/09/06 09:32:12;;;;;;;2.30;1.80;;;;;;;17.23;56.84;99931.97;111196;1204;63706;-77
2021/09/06 09:34:41;;;;;;;2.90;2.20;;;;;;;17.33;56.79;99929.06;111237;1204;61908;-77
2021/09/06 09:37:10;;;;;;;3.20;2.00;;;;;;;17.44;57.23;99927.83;111282;1204;61779;-77
2021/09/06 09:39:38;;;;;;;2.30;1.80;;;;;;;17.58;57.53;99931.51;111180;1204;75503;-77
2021/09/06 09:42:04;;;;;;;1.60;1.40;;;;;;;17.70;57.22;99928.40;111200;1204;61880;-77
2021/09/06 09:44:32;;;;;;;3.90;2.10;;;;;;;17.80;56.02;99928.16;111225;1204;62576;-77
2021/09/06 09:47:01;;;;;;;2.80;2.20;;;;;;;17.84;55.64;99923.48;111217;1195;61880;-77
2021/09/06 09:49:29;;;;;;;2.90;1.80;;;;;;;17.92;55.98;99926.31;111208;1199;61876;-77
2021/09/06 09:51:56;;;;;;;1.80;1.60;;;;;;;17.97;55.60;99924.73;111232;1204;65421;-76
2021/09/06 09:54:24;;;;;;;4.90;2.50;;;;;;;18.00;54.83;99925.40;111195;1196;61882;-77
2021/09/06 09:56:51;;;;;;;2.40;1.90;;;;;;;18.00;54.13;99920.01;111186;1201;63609;-76
2021/09/06 09:59:19;;;;;;;2.20;1.70;;;;;;;18.05;55.00;99920.17;111212;1200;61891;-77
2021/09/06 10:02:00;;;;;;;4.40;3.60;;;;;;;18.14;54.73;99919.95;111187;1204;61867;-76
2021/09/06 10:04:32;;;;;;;2.70;1.70;;;;;;;18.21;54.07;99918.84;111186;1204;67733;-77
2021/09/06 10:07:01;;;;;;;4.00;2.00;;;;;;;18.18;52.91;99921.77;111229;1204;61891;-77
2021/09/06 10:09:38;;;;;;;2.10;1.50;;;;;;;18.16;53.53;99920.27;111172;1204;64141;-77
2021/09/06 10:12:06;;;;;;;3.90;2.30;;;;;;;18.21;53.62;99919.18;111168;1204;61835;-77
2021/09/06 10:14:33;;;;;;;2.00;1.70;;;;;;;18.24;53.26;99916.41;111226;1203;61857;-77
2021/09/06 10:17:03;;;;;;;2.80;1.70;;;;;;;18.26;53.94;99915.73;111150;1205;65526;-78
2021/09/06 10:19:44;;;;;;;3.30;1.90;;;;;;;18.35;53.99;99914.17;111216;1204;61819;-77
2021/09/06 10:22:24;;;;;;;2.60;1.70;;;;;;;18.42;53.15;99911.98;111214;1196;62437;-77
2021/09/06 10:24:58;;;;;;;3.20;2.10;;;;;;;18.42;53.25;99912.73;111180;1203;61902;-78
2021/09/06 10:27:27;;;;;;;2.10;1.30;;;;;;;18.46;52.76;99916.19;111119;1197;61882;-79
2021/09/06 10:30:08;;;;;;;5.10;2.00;;;;;;;18.42;51.57;99913.44;111211;1204;66659;-77
2021/09/06 10:32:43;;;;;;;2.30;2.00;;;;;;;18.34;51.82;99910.16;111205;1204;61816;-77
2021/09/06 10:35:22;;;;;;;2.30;2.10;;;;;;;18.35;52.12;99905.75;111176;1204;64000;-78
2021/09/06 10:38:12;;;;;;;2.70;2.00;;;;;;;18.39;52.30;99903.24;111172;1203;61918;-78
2021/09/06 10:40:41;;;;;;;2.90;1.80;;;;;;;18.49;52.23;99902.77;111187;1196;61870;-79
2021/09/06 10:43:12;;;;;;;2.90;1.80;;;;;;;18.55;51.67;99899.90;111163;1204;66932;-79
2021/09/06 10:45:41;;;;;;;2.70;1.90;;;;;;;18.57;51.66;99897.95;111183;1204;61900;-76
2021/09/06 10:48:08;;;;;;;1.90;1.80;;;;;;;18.67;51.92;99895.67;111218;1204;62334;-78
2021/09/06 10:50:37;;;;;;;2.80;1.70;;;;;;;18.78;51.39;99890.26;111199;1195;61888;-79
2021/09/06 10:53:04;;;;;;;2.70;2.40;;;;;;;18.78;50.17;99892.20;111226;1196;61916;-77
2021/09/06 10:55:31;;;;;;;3.00;1.80;;;;;;;18.81;51.10;99888.37;111033;1205;66835;-77
2021/09/06 10:58:00;;;;;;;1.90;1.70;;;;;;;18.91;51.11;99886.05;111205;1196;61781;-76
2021/09/06 11:00:26;;;;;;;3.10;1.90;;;;;;;18.92;50.41;99888.63;111131;1204;63946;-78
2021/09/06 11:02:53;;;;;;;2.10;1.90;;;;;;;18.86;49.52;99887.86;111136;1203;61812;-76
2021/09/06 11:05:23;;;;;;;2.30;2.10;;;;;;;18.81;48.97;99887.10;111186;1204;62186;-76
2021/09/06 11:07:51;;;;;;;3.30;2.10;;;;;;;18.76;48.63;99883.55;111215;1204;66762;-78
2021/09/06 11:10:20;;;;;;;3.20;1.90;;;;;;;18.75;48.70;99881.46;111264;1204;61888;-78
2021/09/06 11:13:00;;;;;;;4.80;2.40;;;;;;;18.79;48.87;99879.33;111123;1204;63953;-76
2021/09/06 11:15:31;;;;;;;5.10;2.30;;;;;;;18.83;49.44;99876.79;111206;1197;61866;-78
2021/09/06 11:18:04;;;;;;;4.70;2.30;;;;;;;18.93;49.64;99876.33;111201;1196;61868;-78
2021/09/06 11:20:34;;;;;;;3.20;1.90;;;;;;;18.99;50.10;99875.98;111197;1204;66813;-78
2021/09/06 11:23:07;;;;;;;2.80;2.40;;;;;;;19.07;50.28;99876.02;111209;1204;61876;-78
2021/09/06 11:25:36;;;;;;;2.50;1.80;;;;;;;19.07;48.99;99875.60;111172;1204;62560;-78
2021/09/06 11:28:04;;;;;;;3.50;2.10;;;;;;;18.99;48.90;99870.73;111217;1195;61904;-78